Time;durP1;ratioP1;P1;durP2;ratioP2;P2;SDS_P1;SDS_P2;PMS_P1;PMS_P2;Temp;Humidity;BMP_temperature;BMP_pressure;BME280_temperature;BME280_humidity;BME280_pressure;Samples;Min_cycle;Max_cycle;Signal;HPM_P1;HPM_P2
2023/05/27 00:01:48;;;;;;;8.40;3.70;;;10.80;99.90;;;;;;5063175;28;20174;-67
2023/05/27 00:04:14;;;;;;;10.03;4.07;;;10.70;99.90;;;;;;5058280;28;20212;-67
2023/05/27 00:06:39;;;;;;;10.53;4.07;;;10.80;99.90;;;;;;5064430;28;20166;-68
2023/05/27 00:09:05;;;;;;;18.00;4.40;;;10.70;99.90;;;;;;5065330;28;20170;-69
2023/05/27 00:11:31;;;;;;;7.57;3.80;;;10.70;99.90;;;;;;5062863;28;20193;-68
2023/05/27 00:13:56;;;;;;;15.97;4.57;;;10.70;99.90;;;;;;5064376;28;20194;-67
2023/05/27 00:16:23;;;;;;;9.87;3.67;;;10.60;99.90;;;;;;5062228;28;20702;-68
2023/05/27 00:18:48;;;;;;;9.30;3.87;;;10.70;99.90;;;;;;5063968;28;20632;-67
2023/05/27 00:21:14;;;;;;;10.03;4.80;;;10.60;99.90;;;;;;5062083;28;20409;-67
2023/05/27 00:23:44;;;;;;;13.73;4.13;;;10.60;99.90;;;;;;5064465;28;20952;-67
2023/05/27 00:26:10;;;;;;;9.93;3.80;;;10.50;99.90;;;;;;5064251;28;20944;-68
2023/05/27 00:28:35;;;;;;;14.13;3.67;;;10.50;99.90;;;;;;5061909;28;20445;-67
2023/05/27 00:31:01;;;;;;;8.20;3.97;;;10.40;99.90;;;;;;5046790;28;20253;-67
2023/05/27 00:33:27;;;;;;;9.30;3.90;;;10.50;99.90;;;;;;5060311;28;20243;-67
2023/05/27 00:35:52;;;;;;;12.83;5.30;;;10.40;99.90;;;;;;5059662;28;20652;-68
2023/05/27 00:38:18;;;;;;;8.87;4.40;;;10.40;99.90;;;;;;5065542;28;20190;-68
2023/05/27 00:40:44;;;;;;;11.77;4.40;;;10.40;99.90;;;;;;5068724;28;20194;-67
2023/05/27 00:43:10;;;;;;;5.33;3.10;;;10.30;99.90;;;;;;5056835;28;20207;-67
2023/05/27 00:45:35;;;;;;;8.50;3.37;;;10.30;99.90;;;;;;5070803;28;20489;-68
2023/05/27 00:48:02;;;;;;;5.10;3.20;;;10.40;99.90;;;;;;5066024;28;20177;-68
2023/05/27 00:50:29;;;;;;;5.20;3.00;;;10.30;99.90;;;;;;5060523;28;20180;-67
2023/05/27 00:52:58;;;;;;;7.80;3.10;;;10.30;99.90;;;;;;5054910;28;20435;-68
2023/05/27 00:55:24;;;;;;;5.37;3.23;;;10.30;99.90;;;;;;5064455;28;20404;-67
2023/05/27 00:57:50;;;;;;;10.60;3.37;;;10.20;99.90;;;;;;5058437;28;20437;-68
2023/05/27 01:00:17;;;;;;;6.90;3.30;;;10.20;99.90;;;;;;5065664;28;20436;-68
2023/05/27 01:02:42;;;;;;;7.57;4.27;;;10.10;99.90;;;;;;5054726;28;20511;-68
2023/05/27 01:05:10;;;;;;;10.17;4.13;;;10.10;99.90;;;;;;5059693;28;20540;-68
2023/05/27 01:08:08;;;;;;;10.20;4.40;;;10.10;99.90;;;;;;5062182;28;20836;-68
2023/05/27 01:10:43;;;;;;;9.00;4.07;;;10.10;99.90;;;;;;5060012;28;20910;-67
2023/05/27 01:13:35;;;;;;;10.30;4.63;;;10.00;99.90;;;;;;5062821;28;20918;-68
2023/05/27 01:16:05;;;;;;;7.40;4.40;;;10.00;99.90;;;;;;5047553;28;20410;-68
2023/05/27 01:18:33;;;;;;;7.73;3.63;;;9.90;99.90;;;;;;5057959;28;20499;-68
2023/05/27 01:21:12;;;;;;;11.37;4.20;;;9.90;99.90;;;;;;5061702;28;20412;-68
2023/05/27 01:23:40;;;;;;;8.87;4.10;;;9.90;99.90;;;;;;5054632;28;20934;-68
2023/05/27 01:26:06;;;;;;;13.83;3.90;;;9.90;99.90;;;;;;5061741;28;20910;-68
2023/05/27 01:28:32;;;;;;;10.40;3.87;;;9.90;99.90;;;;;;5058951;28;20417;-68
2023/05/27 01:31:16;;;;;;;9.17;4.63;;;9.90;99.90;;;;;;5061386;28;20642;-68
2023/05/27 01:33:58;;;;;;;15.63;4.60;;;9.90;99.90;;;;;;5059353;28;20636;-68
2023/05/27 01:36:28;;;;;;;8.40;4.93;;;9.90;99.90;;;;;;5058795;28;20770;-68
2023/05/27 01:38:56;;;;;;;10.03;4.53;;;9.90;99.90;;;;;;5053709;28;20441;-68
2023/05/27 01:41:22;;;;;;;8.33;4.10;;;9.90;99.90;;;;;;5066247;28;20411;-68
2023/05/27 01:43:49;;;;;;;8.30;4.70;;;9.90;99.90;;;;;;5059395;28;20449;-67
2023/05/27 01:46:15;;;;;;;11.60;3.83;;;9.80;99.90;;;;;;5065538;28;20494;-67
2023/05/27 01:48:41;;;;;;;11.00;3.90;;;9.80;99.90;;;;;;5059031;28;20447;-67
2023/05/27 01:51:06;;;;;;;9.53;4.40;;;9.70;99.90;;;;;;5053184;28;20439;-67
2023/05/27 01:53:32;;;;;;;9.90;4.67;;;9.70;99.90;;;;;;5063606;28;20235;-68
2023/05/27 01:55:58;;;;;;;7.70;3.97;;;9.70;99.90;;;;;;5053061;28;20233;-67
2023/05/27 01:58:23;;;;;;;6.23;4.23;;;9.70;99.90;;;;;;5066170;28;20282;-68
2023/05/27 02:00:50;;;;;;;13.20;4.20;;;9.60;99.90;;;;;;5059188;28;20192;-68
2023/05/27 02:03:15;;;;;;;6.93;3.80;;;9.60;99.90;;;;;;5066911;28;20275;-68
2023/05/27 02:05:42;;;;;;;11.30;3.93;;;9.60;99.90;;;;;;5056464;28;20833;-68
2023/05/27 02:08:07;;;;;;;13.77;4.90;;;9.60;99.90;;;;;;5058937;28;20173;-68
2023/05/27 02:10:33;;;;;;;6.80;4.17;;;9.50;99.90;;;;;;5063935;28;20516;-67
2023/05/27 02:12:58;;;;;;;13.70;4.40;;;9.50;99.90;;;;;;5057499;28;20203;-67
2023/05/27 02:15:26;;;;;;;9.43;3.70;;;9.40;99.90;;;;;;5067324;28;20178;-67
2023/05/27 02:17:55;;;;;;;11.27;4.43;;;9.40;99.90;;;;;;5061515;28;20180;-67
2023/05/27 02:20:21;;;;;;;6.93;4.30;;;9.40;99.90;;;;;;5069858;28;20440;-68
2023/05/27 02:22:48;;;;;;;8.03;3.97;;;9.30;99.90;;;;;;5061191;28;20444;-67
2023/05/27 02:25:13;;;;;;;7.70;3.67;;;9.20;99.90;;;;;;5061213;28;20442;-67
2023/05/27 02:27:48;;;;;;;7.87;3.90;;;9.20;99.90;;;;;;5069581;28;20442;-68
2023/05/27 02:30:16;;;;;;;9.80;4.13;;;9.20;99.90;;;;;;5052714;28;20169;-67
2023/05/27 02:32:43;;;;;;;8.10;4.40;;;9.30;99.90;;;;;;5055264;28;20465;-68
2023/05/27 02:35:10;;;;;;;10.10;4.77;;;9.20;99.90;;;;;;5062362;28;20489;-67
2023/05/27 02:37:35;;;;;;;6.23;4.13;;;9.20;99.90;;;;;;5071005;28;20434;-68
2023/05/27 02:40:01;;;;;;;12.07;5.20;;;9.30;99.90;;;;;;5062200;28;20987;-68
2023/05/27 02:42:26;;;;;;;7.47;4.67;;;9.30;99.90;;;;;;5064448;28;20325;-67
2023/05/27 02:44:52;;;;;;;7.43;4.33;;;9.20;99.90;;;;;;5065903;28;20255;-67
2023/05/27 02:47:19;;;;;;;6.00;4.40;;;9.20;99.90;;;;;;5044864;28;20176;-67
2023/05/27 02:49:44;;;;;;;10.70;4.60;;;9.20;99.90;;;;;;5059386;28;20305;-68
2023/05/27 02:52:10;;;;;;;12.47;4.80;;;9.30;99.90;;;;;;5064559;28;20466;-67
2023/05/27 02:54:35;;;;;;;12.30;5.97;;;9.20;99.90;;;;;;5056271;28;20175;-67
2023/05/27 02:57:01;;;;;;;6.80;3.80;;;9.10;99.90;;;;;;5059184;28;20188;-68
2023/05/27 02:59:27;;;;;;;7.80;4.50;;;9.20;99.90;;;;;;5062032;28;20209;-68
2023/05/27 03:01:52;;;;;;;10.17;4.40;;;9.20;99.90;;;;;;5059651;28;20164;-68
2023/05/27 03:04:18;;;;;;;9.97;4.10;;;9.20;99.90;;;;;;5065244;28;20340;-67
2023/05/27 03:06:43;;;;;;;13.50;4.60;;;9.10;99.90;;;;;;5058998;28;20593;-67
2023/05/27 03:09:09;;;;;;;6.23;4.10;;;9.10;99.90;;;;;;5056284;28;20181;-68
2023/05/27 03:11:35;;;;;;;9.20;3.70;;;9.20;99.90;;;;;;5063720;28;20176;-67
2023/05/27 03:14:00;;;;;;;12.63;7.30;;;9.20;99.90;;;;;;5058714;28;20434;-67
2023/05/27 03:16:26;;;;;;;6.57;4.30;;;9.20;99.90;;;;;;5058825;28;20184;-67
2023/05/27 03:18:52;;;;;;;7.10;4.60;;;9.20;99.90;;;;;;5063900;28;20283;-68
2023/05/27 03:21:17;;;;;;;15.00;5.40;;;9.30;99.90;;;;;;5065098;28;20176;-68
2023/05/27 03:23:43;;;;;;;11.37;5.20;;;9.30;99.90;;;;;;5060128;28;20666;-68
2023/05/27 03:26:09;;;;;;;8.03;4.87;;;9.30;99.90;;;;;;5055786;28;20225;-68
2023/05/27 03:28:34;;;;;;;10.00;4.60;;;9.30;99.90;;;;;;5058957;28;20531;-68
2023/05/27 03:31:00;;;;;;;13.47;5.00;;;9.40;99.90;;;;;;5065167;28;20255;-68
2023/05/27 03:33:26;;;;;;;9.80;5.07;;;9.40;99.90;;;;;;5064062;28;20675;-67
2023/05/27 03:35:51;;;;;;;18.90;6.20;;;9.40;99.90;;;;;;5063311;28;20578;-68
2023/05/27 03:38:18;;;;;;;10.03;4.60;;;9.40;99.90;;;;;;5058480;28;20618;-68
2023/05/27 03:40:43;;;;;;;10.30;5.47;;;9.40;99.90;;;;;;5062730;28;20174;-68
2023/05/27 03:43:09;;;;;;;8.73;4.30;;;9.50;99.90;;;;;;5059724;28;20464;-67
2023/05/27 03:45:35;;;;;;;6.80;4.40;;;9.50;99.90;;;;;;5057359;28;20581;-68
2023/05/27 03:48:00;;;;;;;11.70;4.53;;;9.50;99.90;;;;;;5063827;28;20191;-68
2023/05/27 03:50:26;;;;;;;8.50;4.73;;;9.60;99.90;;;;;;5056151;28;20331;-68
2023/05/27 03:52:52;;;;;;;9.03;4.90;;;9.60;99.90;;;;;;5057344;28;20193;-68
2023/05/27 03:55:17;;;;;;;7.27;4.47;;;9.60;99.90;;;;;;5056280;28;20173;-68
2023/05/27 03:57:43;;;;;;;11.17;4.50;;;9.70;99.90;;;;;;5063024;28;20231;-69
2023/05/27 04:00:12;;;;;;;7.33;4.80;;;9.80;99.90;;;;;;5063321;28;20248;-68
2023/05/27 04:02:38;;;;;;;7.87;4.53;;;9.80;99.90;;;;;;5064168;28;20204;-69
2023/05/27 04:05:04;;;;;;;10.00;5.10;;;9.90;99.90;;;;;;5063020;28;20851;-68
2023/05/27 04:07:31;;;;;;;7.07;4.73;;;9.90;99.90;;;;;;5060443;28;20417;-68
2023/05/27 04:09:57;;;;;;;12.60;4.20;;;9.90;99.90;;;;;;5057615;28;20676;-69
2023/05/27 04:12:23;;;;;;;9.23;4.10;;;9.90;99.90;;;;;;5062326;28;20438;-69
2023/05/27 04:14:49;;;;;;;14.70;4.30;;;10.00;99.90;;;;;;5063621;28;20418;-68
2023/05/27 04:17:15;;;;;;;13.00;4.90;;;10.10;99.90;;;;;;5064232;28;20416;-68
2023/05/27 04:19:41;;;;;;;11.10;4.70;;;10.20;99.90;;;;;;5064255;28;20459;-68
2023/05/27 04:22:07;;;;;;;11.83;5.43;;;10.20;99.90;;;;;;5063217;28;20218;-69
2023/05/27 04:24:32;;;;;;;16.17;4.10;;;10.50;99.90;;;;;;5060925;28;20954;-69
2023/05/27 04:26:58;;;;;;;6.97;4.00;;;10.90;99.90;;;;;;5064655;28;20163;-67
2023/05/27 04:29:25;;;;;;;5.73;4.00;;;11.40;99.90;;;;;;5061705;28;20178;-67
2023/05/27 04:31:50;;;;;;;10.80;5.03;;;11.80;99.90;;;;;;5063609;28;20443;-68
2023/05/27 04:34:16;;;;;;;11.00;4.63;;;12.40;99.90;;;;;;5062777;28;20515;-68
2023/05/27 04:36:43;;;;;;;13.07;4.53;;;12.50;99.90;;;;;;5051520;28;20179;-68
2023/05/27 04:39:11;;;;;;;7.07;3.17;;;12.20;99.90;;;;;;5056542;28;20554;-68
2023/05/27 04:41:39;;;;;;;10.50;3.70;;;12.00;99.90;;;;;;5067876;28;20416;-68
2023/05/27 04:44:05;;;;;;;12.23;4.30;;;11.80;99.90;;;;;;5051205;28;20472;-67
2023/05/27 04:46:31;;;;;;;10.63;3.90;;;11.80;99.90;;;;;;5066854;28;20819;-68
2023/05/27 04:48:56;;;;;;;7.90;4.80;;;11.80;99.90;;;;;;5056287;28;20179;-67
2023/05/27 04:51:22;;;;;;;11.40;4.30;;;11.90;99.90;;;;;;5057252;28;20260;-67
2023/05/27 04:53:48;;;;;;;6.10;3.53;;;11.90;99.90;;;;;;5064297;28;20196;-67
2023/05/27 04:56:16;;;;;;;3.73;3.33;;;12.20;99.90;;;;;;5053674;28;20635;-68
2023/05/27 04:58:43;;;;;;;8.37;3.43;;;12.80;99.90;;;;;;5051844;28;20827;-67
2023/05/27 05:01:16;;;;;;;11.00;4.00;;;13.50;99.90;;;;;;5058702;28;20416;-67
2023/05/27 05:03:51;;;;;;;6.50;3.40;;;13.90;99.90;;;;;;5052455;28;20424;-69
2023/05/27 05:06:22;;;;;;;7.23;3.37;;;14.00;99.90;;;;;;5058149;28;20504;-67
2023/05/27 05:08:48;;;;;;;11.00;4.47;;;14.30;99.90;;;;;;5055975;28;20799;-66
2023/05/27 05:11:14;;;;;;;11.70;4.10;;;14.10;99.90;;;;;;5061946;28;20431;-68
2023/05/27 05:13:40;;;;;;;8.13;4.13;;;14.20;99.90;;;;;;5056613;28;20422;-68
2023/05/27 05:16:05;;;;;;;10.50;3.63;;;14.30;99.90;;;;;;5062129;28;20830;-68
2023/05/27 05:18:31;;;;;;;8.63;3.83;;;14.30;99.90;;;;;;5058639;28;20247;-68
2023/05/27 05:20:57;;;;;;;12.57;3.50;;;15.20;99.90;;;;;;5065829;28;20184;-67
2023/05/27 05:23:22;;;;;;;8.20;4.17;;;15.80;99.90;;;;;;5060134;28;20213;-67
2023/05/27 05:25:54;;;;;;;6.57;3.30;;;15.80;99.90;;;;;;5063024;28;20187;-67
2023/05/27 05:28:20;;;;;;;4.83;3.20;;;15.60;99.90;;;;;;5061156;28;20179;-67
2023/05/27 05:30:45;;;;;;;8.03;3.00;;;15.60;99.90;;;;;;5062706;28;20756;-68
2023/05/27 05:33:11;;;;;;;6.10;3.30;;;15.40;99.90;;;;;;5061632;28;20223;-69
2023/05/27 05:35:37;;;;;;;7.07;3.67;;;15.90;99.90;;;;;;5061982;28;20196;-67
2023/05/27 05:38:02;;;;;;;7.10;3.00;;;17.00;99.90;;;;;;5053924;28;20208;-67
2023/05/27 05:40:28;;;;;;;7.07;3.10;;;17.40;99.90;;;;;;5061156;28;20268;-67
2023/05/27 05:42:53;;;;;;;5.73;3.27;;;16.80;99.90;;;;;;5062566;28;20216;-68
2023/05/27 05:45:19;;;;;;;8.20;3.40;;;16.90;99.90;;;;;;5062007;28;20173;-68
2023/05/27 05:47:45;;;;;;;5.33;3.10;;;17.10;99.90;;;;;;5062585;28;20194;-68
2023/05/27 05:50:10;;;;;;;2.80;2.30;;;17.20;99.90;;;;;;5061174;28;20599;-68
2023/05/27 05:52:36;;;;;;;5.50;3.60;;;17.00;99.90;;;;;;5050746;28;20206;-68
2023/05/27 05:55:02;;;;;;;8.43;3.40;;;16.40;99.90;;;;;;5061163;28;20170;-69
2023/05/27 05:57:31;;;;;;;3.83;2.93;;;16.80;99.90;;;;;;5052507;28;20523;-68
2023/05/27 05:59:58;;;;;;;8.47;2.80;;;17.30;99.90;;;;;;5067122;28;20711;-68
2023/05/27 06:02:25;;;;;;;6.60;1.90;;;18.20;99.90;;;;;;5062160;28;20466;-69
2023/05/27 06:04:51;;;;;;;2.70;1.77;;;18.50;99.90;;;;;;5062245;28;20165;-66
2023/05/27 06:07:16;;;;;;;7.27;2.60;;;18.70;99.90;;;;;;5062303;28;20924;-67
2023/05/27 06:09:42;;;;;;;3.30;1.53;;;19.10;99.90;;;;;;5058363;28;20227;-67
2023/05/27 06:12:07;;;;;;;3.80;2.00;;;18.30;99.90;;;;;;5062287;28;20197;-68
2023/05/27 06:14:33;;;;;;;4.37;2.70;;;19.10;99.90;;;;;;5061420;28;20182;-67
2023/05/27 06:16:59;;;;;;;6.80;2.50;;;19.60;99.90;;;;;;5057717;28;20583;-67
2023/05/27 06:19:24;;;;;;;4.70;2.40;;;19.80;99.90;;;;;;5062298;28;20201;-67
2023/05/27 06:21:51;;;;;;;2.13;1.53;;;19.80;99.50;;;;;;5061088;28;20219;-67
2023/05/27 06:24:16;;;;;;;4.57;1.70;;;20.10;97.50;;;;;;5061051;28;20189;-68
2023/05/27 06:26:42;;;;;;;4.90;1.50;;;19.80;95.40;;;;;;5060249;28;20412;-69
2023/05/27 06:29:08;;;;;;;3.00;1.40;;;20.40;93.00;;;;;;5057367;28;20182;-69
2023/05/27 06:31:33;;;;;;;1.20;0.90;;;20.70;93.10;;;;;;5055067;28;20206;-67
2023/05/27 06:33:59;;;;;;;4.13;1.87;;;20.80;92.20;;;;;;5057222;28;20216;-68
2023/05/27 06:36:25;;;;;;;1.43;1.03;;;21.40;89.00;;;;;;5055062;28;20189;-67
2023/05/27 06:38:51;;;;;;;2.30;1.90;;;20.90;89.90;;;;;;5057413;28;20237;-68
2023/05/27 06:41:17;;;;;;;6.13;2.10;;;21.50;85.90;;;;;;5066098;28;20261;-69
2023/05/27 06:43:42;;;;;;;2.13;1.13;;;21.20;90.10;;;;;;5053594;28;20492;-67
2023/05/27 06:46:08;;;;;;;4.30;1.33;;;21.70;88.70;;;;;;5060773;28;20458;-68
2023/05/27 06:48:34;;;;;;;2.67;1.40;;;22.90;80.40;;;;;;5059528;28;20213;-67
2023/05/27 06:50:59;;;;;;;1.53;1.00;;;21.70;79.60;;;;;;5058578;28;20536;-67
2023/05/27 06:53:25;;;;;;;3.00;1.00;;;21.00;83.60;;;;;;5065349;28;20639;-67
2023/05/27 06:55:51;;;;;;;4.17;1.50;;;22.30;81.20;;;;;;5052764;28;20656;-68
2023/05/27 06:58:17;;;;;;;1.60;1.13;;;21.90;79.70;;;;;;5064595;28;20288;-68
2023/05/27 07:00:42;;;;;;;2.20;1.20;;;22.90;78.30;;;;;;5057229;28;20171;-68
2023/05/27 07:03:08;;;;;;;2.87;1.07;;;22.50;73.90;;;;;;5064215;28;20194;-68
2023/05/27 07:05:33;;;;;;;2.10;1.27;;;21.40;76.30;;;;;;5063144;28;20577;-67
2023/05/27 07:07:59;;;;;;;2.57;1.50;;;21.30;77.80;;;;;;5051737;28;20164;-67
2023/05/27 07:10:25;;;;;;;2.33;1.30;;;21.00;75.70;;;;;;5066017;28;20173;-68
2023/05/27 07:12:51;;;;;;;2.33;1.07;;;21.10;77.40;;;;;;5056205;28;20237;-68
2023/05/27 07:15:16;;;;;;;2.30;1.37;;;22.40;74.40;;;;;;5067731;28;20459;-69
2023/05/27 07:17:42;;;;;;;2.73;1.27;;;22.50;72.80;;;;;;5059335;28;20175;-69
2023/05/27 07:20:08;;;;;;;2.70;1.20;;;22.50;72.10;;;;;;5062890;28;20627;-68
2023/05/27 07:22:34;;;;;;;4.47;1.23;;;22.50;76.30;;;;;;5060122;28;20714;-67
2023/05/27 07:25:00;;;;;;;2.67;1.30;;;23.10;75.80;;;;;;5056348;28;20430;-68
2023/05/27 07:27:25;;;;;;;4.10;1.27;;;22.40;75.90;;;;;;5065980;28;20186;-68
2023/05/27 07:29:51;;;;;;;1.43;1.20;;;23.70;68.40;;;;;;5057403;28;20174;-67
2023/05/27 07:32:16;;;;;;;3.33;1.37;;;24.50;66.90;;;;;;5067979;28;20198;-68
2023/05/27 07:34:42;;;;;;;1.33;1.10;;;24.90;63.90;;;;;;5060386;28;20205;-69
2023/05/27 07:37:08;;;;;;;1.57;1.10;;;22.60;66.30;;;;;;5055620;28;20665;-68
2023/05/27 07:39:33;;;;;;;1.37;0.90;;;21.70;66.00;;;;;;5063154;28;20206;-69
2023/05/27 07:41:59;;;;;;;1.30;1.20;;;22.80;65.70;;;;;;5065962;28;20216;-68
2023/05/27 07:44:26;;;;;;;4.80;1.03;;;23.70;63.40;;;;;;5062525;28;20691;-68
2023/05/27 07:46:52;;;;;;;1.60;0.80;;;24.90;59.20;;;;;;5068253;28;20167;-68
2023/05/27 07:49:17;;;;;;;1.40;0.87;;;23.00;60.10;;;;;;5061697;28;20425;-67
2023/05/27 07:51:43;;;;;;;2.03;1.13;;;22.50;60.90;;;;;;5049775;28;20185;-68
2023/05/27 07:54:09;;;;;;;2.13;0.90;;;22.00;62.80;;;;;;5060674;28;20660;-67
2023/05/27 07:56:34;;;;;;;2.13;1.07;;;22.60;63.60;;;;;;5063780;28;20186;-68
2023/05/27 07:59:00;;;;;;;1.47;1.00;;;22.00;65.00;;;;;;5065773;28;20536;-67
2023/05/27 08:01:30;;;;;;;1.00;0.80;;;23.90;58.90;;;;;;5062593;28;20194;-67
2023/05/27 08:03:56;;;;;;;1.83;0.90;;;23.20;58.80;;;;;;5067312;28;20281;-69
2023/05/27 08:06:21;;;;;;;2.07;1.13;;;22.70;63.10;;;;;;5060546;28;20504;-68
2023/05/27 08:08:47;;;;;;;2.10;1.20;;;24.20;57.50;;;;;;5063019;28;20174;-67
2023/05/27 08:11:13;;;;;;;1.93;1.30;;;23.10;57.00;;;;;;5061708;28;20175;-67
2023/05/27 08:13:39;;;;;;;1.60;1.10;;;23.40;59.40;;;;;;5063912;28;20431;-68
2023/05/27 08:16:04;;;;;;;1.13;1.03;;;21.90;62.30;;;;;;5064382;28;20185;-67
2023/05/27 08:18:30;;;;;;;2.73;1.17;;;21.30;64.30;;;;;;5061320;28;20218;-67
2023/05/27 08:20:56;;;;;;;1.83;1.13;;;21.40;65.00;;;;;;5065707;28;20181;-68
2023/05/27 08:23:21;;;;;;;2.13;1.20;;;23.20;62.30;;;;;;5061009;28;20222;-69
2023/05/27 08:25:47;;;;;;;1.73;1.17;;;22.30;60.50;;;;;;5063848;28;20263;-66
2023/05/27 08:28:13;;;;;;;1.10;0.90;;;21.60;61.60;;;;;;5058412;28;20205;-69
2023/05/27 08:30:38;;;;;;;1.20;1.10;;;21.90;58.80;;;;;;5062066;28;20249;-68
2023/05/27 08:33:04;;;;;;;1.20;0.90;;;22.30;57.30;;;;;;5063166;28;20260;-69
2023/05/27 08:35:30;;;;;;;1.37;1.10;;;21.80;57.70;;;;;;5056193;28;20191;-68
2023/05/27 08:37:56;;;;;;;3.03;1.00;;;22.00;57.70;;;;;;5063532;28;20423;-67
2023/05/27 08:40:22;;;;;;;1.57;1.30;;;23.20;57.40;;;;;;5061583;28;20285;-68
2023/05/27 08:42:48;;;;;;;1.60;1.10;;;24.00;56.10;;;;;;5068413;28;20699;-68
2023/05/27 08:45:14;;;;;;;1.30;0.80;;;23.20;55.40;;;;;;5063542;28;20181;-68
2023/05/27 08:47:40;;;;;;;1.00;0.80;;;24.20;55.60;;;;;;5063275;28;20452;-68
2023/05/27 08:50:07;;;;;;;2.20;0.80;;;23.30;58.60;;;;;;5066704;28;20253;-68
2023/05/27 08:52:33;;;;;;;1.30;0.87;;;23.90;56.00;;;;;;5053620;28;20444;-67
2023/05/27 08:55:00;;;;;;;1.77;1.10;;;24.70;53.30;;;;;;5063299;28;20408;-68
2023/05/27 08:57:31;;;;;;;1.37;1.13;;;23.30;54.30;;;;;;5055213;28;20436;-68
2023/05/27 08:59:57;;;;;;;1.30;1.10;;;23.30;54.70;;;;;;5059974;28;20452;-68
2023/05/27 09:02:24;;;;;;;1.63;1.20;;;22.70;55.60;;;;;;5056417;28;20436;-68
2023/05/27 09:04:50;;;;;;;0.80;0.80;;;24.20;55.90;;;;;;5059405;28;20169;-68
2023/05/27 09:07:17;;;;;;;1.63;1.10;;;23.80;54.70;;;;;;5062876;28;20424;-68
2023/05/27 09:09:53;;;;;;;1.20;0.90;;;23.10;56.00;;;;;;5055926;28;20429;-69
2023/05/27 09:12:25;;;;;;;1.10;1.00;;;23.60;56.10;;;;;;5062311;28;20450;-70
2023/05/27 09:14:51;;;;;;;1.20;0.80;;;23.80;52.70;;;;;;5056467;28;20416;-68
2023/05/27 09:17:17;;;;;;;0.90;0.80;;;23.70;53.40;;;;;;5062782;28;20791;-69
2023/05/27 09:19:45;;;;;;;6.90;0.90;;;23.10;55.30;;;;;;5062639;28;20456;-68
2023/05/27 09:22:25;;;;;;;1.10;0.90;;;23.80;54.80;;;;;;5060466;28;20186;-68
2023/05/27 09:24:55;;;;;;;2.47;0.77;;;24.00;54.20;;;;;;5052882;28;20932;-68
2023/05/27 09:27:28;;;;;;;2.07;1.03;;;23.50;53.80;;;;;;5063242;28;20416;-68
2023/05/27 09:29:55;;;;;;;1.30;1.03;;;23.50;55.80;;;;;;5058175;28;20425;-68
2023/05/27 09:32:25;;;;;;;1.27;1.10;;;23.50;53.70;;;;;;5066517;28;20436;-68
2023/05/27 09:34:51;;;;;;;1.10;1.00;;;24.30;53.30;;;;;;5059088;28;20482;-67
2023/05/27 09:37:18;;;;;;;1.50;1.27;;;24.80;52.70;;;;;;5059266;28;20425;-68
2023/05/27 09:39:44;;;;;;;3.00;1.30;;;24.10;53.20;;;;;;5059042;28;20877;-67
2023/05/27 09:42:10;;;;;;;3.33;1.20;;;24.90;50.60;;;;;;5060701;28;20556;-67
2023/05/27 09:44:40;;;;;;;2.70;1.10;;;24.60;50.30;;;;;;5061568;28;20489;-67
2023/05/27 09:47:11;;;;;;;1.80;1.17;;;24.90;50.70;;;;;;5063001;28;20205;-68
2023/05/27 09:49:37;;;;;;;1.73;1.20;;;24.40;50.50;;;;;;5060227;28;21905;-68
2023/05/27 09:52:06;;;;;;;1.20;1.10;;;24.00;50.70;;;;;;5061104;28;20463;-68
2023/05/27 09:54:32;;;;;;;1.60;1.50;;;23.20;51.70;;;;;;5059688;28;20903;-67
2023/05/27 09:56:58;;;;;;;1.60;1.17;;;24.00;52.50;;;;;;5054463;28;20803;-67
2023/05/27 09:59:25;;;;;;;1.70;1.07;;;24.40;52.10;;;;;;5059775;28;20464;-67
2023/05/27 10:01:51;;;;;;;1.60;1.27;;;23.70;51.60;;;;;;5064964;28;20409;-67
2023/05/27 10:04:17;;;;;;;2.30;1.57;;;23.50;51.10;;;;;;5061836;28;20420;-69
2023/05/27 10:06:44;;;;;;;2.93;1.50;;;23.10;51.30;;;;;;5056349;28;20409;-68
2023/05/27 10:09:12;;;;;;;2.40;1.53;;;23.10;52.50;;;;;;5061258;28;20188;-67
2023/05/27 10:11:40;;;;;;;1.40;1.27;;;22.70;52.40;;;;;;5057669;28;20415;-68
2023/05/27 10:14:06;;;;;;;1.93;1.60;;;22.60;52.50;;;;;;5062243;28;20422;-69
2023/05/27 10:16:34;;;;;;;3.17;1.43;;;21.50;52.20;;;;;;5061262;28;20424;-69
2023/05/27 10:19:00;;;;;;;1.83;1.27;;;21.90;52.80;;;;;;5056519;28;20538;-69
2023/05/27 10:21:28;;;;;;;1.40;1.20;;;21.30;53.30;;;;;;5058261;28;20525;-68
2023/05/27 10:24:01;;;;;;;1.60;1.20;;;22.00;52.40;;;;;;5057168;28;20222;-69
2023/05/27 10:26:40;;;;;;;1.67;1.20;;;21.70;53.60;;;;;;5058900;28;20912;-67
2023/05/27 10:29:17;;;;;;;3.93;1.40;;;21.40;53.30;;;;;;5062049;28;20407;-67
2023/05/27 10:31:47;;;;;;;2.20;1.20;;;20.80;56.40;;;;;;5053267;28;20468;-67
2023/05/27 10:34:13;;;;;;;1.60;1.37;;;20.70;56.40;;;;;;5061978;28;20867;-67
2023/05/27 10:36:39;;;;;;;1.43;1.20;;;20.80;55.00;;;;;;5058523;28;20425;-68
2023/05/27 10:39:06;;;;;;;3.10;1.30;;;21.30;55.10;;;;;;5056178;28;20913;-68
2023/05/27 10:41:54;;;;;;;2.50;1.60;;;21.00;55.00;;;;;;5069984;28;20460;-68
2023/05/27 10:44:34;;;;;;;2.90;1.30;;;21.00;55.70;;;;;;5061593;28;20468;-68
2023/05/27 10:47:04;;;;;;;1.33;1.23;;;20.70;54.90;;;;;;5066339;28;20437;-67
2023/05/27 10:49:35;;;;;;;2.40;1.27;;;20.40;55.50;;;;;;5061116;28;20431;-68
2023/05/27 10:52:15;;;;;;;3.70;1.60;;;20.80;55.40;;;;;;5065571;28;20425;-67
2023/05/27 10:54:46;;;;;;;1.53;1.40;;;20.80;55.00;;;;;;5060848;28;20446;-67
2023/05/27 10:57:13;;;;;;;1.90;1.60;;;20.80;55.00;;;;;;5065142;28;20445;-67
2023/05/27 10:59:52;;;;;;;2.77;1.50;;;20.40;56.30;;;;;;5047111;28;20453;-69
2023/05/27 11:02:18;;;;;;;2.30;1.30;;;20.10;56.50;;;;;;5063876;28;20433;-67
2023/05/27 11:04:44;;;;;;;1.63;1.50;;;20.10;56.20;;;;;;5065496;28;20414;-68
2023/05/27 11:07:10;;;;;;;2.60;1.30;;;20.30;56.00;;;;;;5065539;28;20523;-67
2023/05/27 11:09:53;;;;;;;1.70;1.20;;;20.30;56.40;;;;;;5062695;28;20527;-68
2023/05/27 11:12:23;;;;;;;2.10;1.53;;;20.50;56.70;;;;;;5060703;28;20862;-67
2023/05/27 11:14:52;;;;;;;1.83;1.43;;;20.70;58.60;;;;;;5047617;28;20450;-68
2023/05/27 11:17:18;;;;;;;1.47;1.10;;;20.60;56.40;;;;;;5061830;28;20455;-68
2023/05/27 11:19:49;;;;;;;1.93;1.57;;;20.10;56.50;;;;;;5065949;28;20470;-68
2023/05/27 11:22:16;;;;;;;2.30;1.10;;;20.20;56.20;;;;;;5065351;28;20458;-68
2023/05/27 11:24:41;;;;;;;1.57;1.37;;;20.30;57.00;;;;;;5040292;28;20473;-68
2023/05/27 11:27:15;;;;;;;2.73;1.77;;;20.70;56.40;;;;;;5067163;28;20409;-68
2023/05/27 11:29:52;;;;;;;2.83;1.50;;;20.50;57.10;;;;;;5056461;28;20195;-68
2023/05/27 11:32:18;;;;;;;2.70;1.43;;;20.40;57.00;;;;;;5064227;28;20434;-68
2023/05/27 11:34:45;;;;;;;2.03;1.83;;;20.30;57.00;;;;;;5060513;28;20494;-68
2023/05/27 11:37:12;;;;;;;1.50;1.40;;;20.10;56.90;;;;;;5056213;28;20429;-68
2023/05/27 11:39:37;;;;;;;3.30;1.23;;;20.20;57.30;;;;;;5061416;28;20463;-68
2023/05/27 11:42:08;;;;;;;2.33;1.20;;;20.40;57.40;;;;;;5064297;28;20789;-67
2023/05/27 11:44:34;;;;;;;3.50;1.83;;;20.30;57.00;;;;;;5062456;28;20414;-67
2023/05/27 11:47:00;;;;;;;3.20;1.67;;;20.20;57.60;;;;;;5066091;28;20464;-68
2023/05/27 11:49:28;;;;;;;3.13;1.60;;;20.60;57.80;;;;;;5060515;28;20184;-69
2023/05/27 11:51:58;;;;;;;2.60;1.60;;;20.50;57.60;;;;;;5084834;22;20465;-70
2023/05/27 11:54:30;;;;;;;1.40;1.30;;;20.50;57.90;;;;;;5059947;28;20413;-71
2023/05/27 11:56:58;;;;;;;2.50;1.60;;;20.50;57.70;;;;;;5063881;28;20395;-70
2023/05/27 11:59:25;;;;;;;1.90;1.53;;;20.50;56.70;;;;;;5062730;28;20490;-70
2023/05/27 12:01:51;;;;;;;3.57;1.67;;;20.50;56.90;;;;;;5055193;28;20402;-69
2023/05/27 12:04:17;;;;;;;2.60;1.97;;;20.50;57.90;;;;;;5067868;28;20714;-70
2023/05/27 12:06:45;;;;;;;1.73;1.37;;;20.60;57.10;;;;;;5059967;28;20415;-70
2023/05/27 12:09:11;;;;;;;1.67;1.40;;;20.40;57.00;;;;;;5059921;28;20516;-70
2023/05/27 12:11:37;;;;;;;1.60;1.50;;;20.20;57.40;;;;;;5062725;28;20442;-70
2023/05/27 12:14:04;;;;;;;5.93;1.47;;;20.40;57.30;;;;;;5063258;28;20489;-70
2023/05/27 12:16:30;;;;;;;2.30;1.90;;;20.30;56.20;;;;;;5059674;28;20404;-70
2023/05/27 12:18:55;;;;;;;1.47;1.20;;;20.30;56.20;;;;;;5062731;28;20450;-70
2023/05/27 12:21:21;;;;;;;4.13;1.60;;;20.50;56.30;;;;;;5060588;28;20523;-70
2023/05/27 12:23:48;;;;;;;2.00;1.30;;;20.50;56.80;;;;;;5062809;28;20342;-69
2023/05/27 12:26:14;;;;;;;2.70;1.67;;;20.70;56.20;;;;;;5060732;28;20825;-70
2023/05/27 12:28:41;;;;;;;3.03;1.47;;;20.60;56.00;;;;;;5062421;28;20406;-69
2023/05/27 12:31:07;;;;;;;1.97;1.50;;;20.70;55.60;;;;;;5062809;28;20417;-69
2023/05/27 12:33:33;;;;;;;1.50;1.40;;;20.70;55.40;;;;;;5061432;28;20866;-69
2023/05/27 12:36:00;;;;;;;2.80;1.40;;;20.50;55.40;;;;;;5062761;28;20473;-70
2023/05/27 12:38:26;;;;;;;2.40;1.80;;;20.50;55.50;;;;;;5060958;28;20413;-69
2023/05/27 12:40:51;;;;;;;2.30;1.63;;;20.60;55.50;;;;;;5061438;28;20876;-69
2023/05/27 12:43:18;;;;;;;1.37;1.20;;;20.80;55.80;;;;;;5060843;28;20421;-70
2023/05/27 12:45:45;;;;;;;3.20;1.53;;;20.80;55.00;;;;;;5062580;28;20503;-69
2023/05/27 12:48:11;;;;;;;2.30;1.50;;;21.00;54.80;;;;;;5062084;28;20902;-70